Nearby METAR Reports

 

KBML - Berlin, NH
Updated: Thu, 15-Nov-2018 1:52pm EST
Clear
Clear
 Wind from calm
Wind: Calm
Temperature: 21°F , -6°C
Dew Point: 7°F , -14°C
Humidity: 54%
Barometer: 30.42 inHg , 1030.1 hPa
Clouds: Clear
Visibility: 10 miles , 16 km
2018/11/15 18:52 KBML 151852Z AUTO 00000KT 10SM CLR M06/M14 A3042 RMK AO2 SLP327 T10561144
KCON - Concord, NH
Updated: Thu, 15-Nov-2018 1:51pm EST
Clear
Clear
 Wind from S
Wind: S 6 mph , 9 km/h
Temperature: 28°F , -2°C
Wind Chill: 21°F , -6°C
Dew Point: 1°F , -17°C
Humidity: 31%
Barometer: 30.50 inHg , 1032.8 hPa
Clouds: Clear
Visibility: 10 miles , 16 km
2018/11/15 18:51 KCON 151851Z AUTO 18005KT 10SM CLR M02/M17 A3050 RMK AO2 SLP333 T10221167
KAFN - Lebanon, NH
Updated: Thu, 15-Nov-2018 1:52pm EST
Clear
Clear
 Wind from SSE
Wind: SSE 6 mph , 9 km/h
Temperature: 28°F , -2°C
Wind Chill: 21°F , -6°C
Dew Point: -0°F , -18°C
Humidity: 29%
Barometer: 30.43 inHg , 1030.5 hPa
Clouds: Clear
Visibility: 10 miles , 16 km
2018/11/15 18:52 KAFN 151852Z AUTO 15005KT 10SM CLR M02/M18 A3043 RMK AO2 SLP325 T10221178
 
KMHT - Manchester, NH
Updated: Thu, 15-Nov-2018 1:53pm EST
Overcast
Overcast
 Wind from SE
Wind: SE 5 mph , 7 km/h
Temperature: 28°F , -2°C
Wind Chill: 22°F , -6°C
Dew Point: -0°F , -18°C
Humidity: 29%
Barometer: 30.49 inHg , 1032.5 hPa
Clouds: Overcast
Visibility: 10 miles , 16 km
Cloud details: Overcast 20000 ft
2018/11/15 18:53 KMHT 151853Z 14004KT 10SM OVC200 M02/M18 A3049 RMK AO2 SLP345 T10171183
KMWN - Mount Washington
Updated: Thu, 15-Nov-2018 1:52pm EST
Overcast
Overcast
 Wind from WNW
Wind: WNW 12 mph , 19 km/h
Temperature: 18°F , -8°C
Wind Chill: 5°F , -15°C
Dew Point: -9°F , -23°C
Humidity: 29%
Clouds: Overcast
Visibility: 80 miles , 128 km
Cloud details: Few Clouds 8000 ft
Mostly cloudy 10000 ft
Overcast 15000 ft
2018/11/15 18:52 KMWN 151852Z 30010KT 80SM FEW080 BKN100 OVC150 M08/M23 RMK VIRGA DSNT SW
K25B - Portsmouth Harbor
Updated: Wed, 31-Dec-1969 7:00pm EST
NOT Current
unable to load K25B data RC=404 Not Found
unable to load K25B data RC=404 Not Found
 
 
KDDH - Bennington, VT
Updated: Thu, 15-Nov-2018 1:54pm EST
Clear
Clear
 Wind from calm
Wind: Calm
Temperature: 30°F , -1°C
Dew Point: 9°F , -13°C
Humidity: 40%
Barometer: 30.39 inHg , 1029.1 hPa
Clouds: Clear
Visibility: 10 miles , 16 km
2018/11/15 18:54 KDDH 151854Z AUTO 00000KT 10SM CLR M01/M13 A3039 RMK AO2 SLP302 T10111133
K9B2 - Newport, VT
Updated: Wed, 31-Dec-1969 7:00pm EST
NOT Current
unable to load K9B2 data RC=404 Not Found
unable to load K9B2 data RC=404 Not Found
 
K1V4 - St Johnsbury, VT
Updated: Thu, 15-Nov-2018 1:54pm EST

 
Temperature: 19°F , -7°C
Dew Point: 9°F , -13°C
Humidity: 63%
Barometer: 30.44 inHg , 1030.8 hPa
2018/11/15 18:54 K1V4 151854Z AUTO M07/M13 A3044 RMK AO1 SLP330 T10671128
 
KBGR - Bangor, ME
Updated: Thu, 15-Nov-2018 1:53pm EST
Mostly cloudy
Mostly cloudy
 Wind from calm
Wind: Calm
Temperature: 28°F , -2°C
Dew Point: 1°F , -17°C
Humidity: 31%
Barometer: 30.51 inHg , 1033.2 hPa
Clouds: Mostly cloudy
Visibility: 10 miles , 16 km
Cloud details: Mostly cloudy 20000 ft
2018/11/15 18:53 KBGR 151853Z 00000KT 10SM BKN200 M02/M17 A3051 RMK AO2 SLP336 T10171167
KBHB - Bar Harbor, ME
Updated: Thu, 15-Nov-2018 1:56pm EST
Clear
Clear
 Wind from varies
Wind: varies 3 mph , 6 km/h
Temperature: 28°F , -2°C
Dew Point: 7°F , -14°C
Humidity: 40%
Barometer: 30.52 inHg , 1033.5 hPa
Clouds: Clear
Visibility: 10 miles , 16 km
2018/11/15 18:56 KBHB 151856Z AUTO VRB03KT 10SM CLR M02/M14 A3052 RMK AO2 SLP340 T10171144 FZRANO
74389 - Gray, ME
Updated: Wed, 31-Dec-1969 7:00pm EST
NOT Current
74389 not loaded
74389 not loaded
 
 
KGNR - Greenville,ME
Updated: Thu, 15-Nov-2018 1:56pm EST

 Wind from N
Wind: N 6 mph , 9 km/h
Temperature: 19°F , -7°C
Wind Chill: 11°F , -12°C
Dew Point: 5°F , -15°C
Humidity: 53%
Barometer: 30.38 inHg , 1028.8 hPa
2018/11/15 18:56 KGNR 151856Z AUTO 35005KT M07/M15 A3038 RMK AO1 SLP321 T10671150
KOLD - Old Town, ME
Updated: Wed, 31-Dec-1969 7:00pm EST
NOT Current
unable to load KOLD data RC=404 Not Found
unable to load KOLD data RC=404 Not Found
 
KRUM - Rumford, ME
Updated: Wed, 31-Dec-1969 7:00pm EST
NOT Current
unable to load KRUM data RC=404 Not Found
unable to load KRUM data RC=404 Not Found
 










Contact Us

© 2018, johnsnhweather | Weather-Display (10.37S-(b82)) | Valid XHTML 1.0 | Valid CSS

This website is neither affiliated with nor endorsed by the National Weather Service, the town of Pittsburg or any other government agency.
The weather data contained herein is offered without any warranties expressed or implied, and is meant to supplement NOAA weather forecasts and information. Never base important decisions that could result in harm to people or property on this weather information.